Aérodrome :
LOGIN :

S'inscrire | Disclaimer

   EN    FR    IT 

 










Légende :    VFR   VFR Marginal   IFR   IFR Intensif   IFR Très Intensif
Visi : 
Plafond : 
>= 8 km
>= 3000ft
5 à 8 km
1000 à 3000 ft
1500m à 5 km
500 à 1000 ft
800 à 1500m
200 à 500 ft
< 800m
< 200 ft
Symboles :   Orages  Brouillard  Fortes neiges  Fortes précipitations  Vent > 20 kt
SIGMETs :   Divers  Orages  Givrage  Turbulence  Onde Orograph.  Cendres Volcan.






- Altitude de l'aérodrome : 376 ft


LHKE - Kecskemét

DERNIER METAR :
  • 020645Z 13007KT 6000 -RA FEW007 BKN028 OVC050 08/08 Q1011 NOSIG RMK WHT

METARs EXPIRÉS :
  • 020615Z 12007KT 3000 -RA BR FEW008 BKN015 OVC050 08/08 Q1011 NOSIG RMK YLO
  • 020545Z 11005KT 2000 -RA BR FEW008 BKN015 OVC030 08/08 Q1011 TEMPO BKN008 RMK YLO
  • 020515Z 11005KT 4000 -RA BR BKN046 OVC060 08/08 Q1010 TEMPO 3000 RA BR RMK GRN
  • 020445Z 13005KT 8000 -RA NSC 08/07 Q1010 NOSIG RMK BLU
  • 020415Z 13006KT 9999 -RA NSC 09/07 Q1010 NOSIG RMK BLU
  • 012045Z 14004KT CAVOK 11/06 Q1010 NOSIG RMK BLU
  • 020345Z 12007KT 9999 -RA NSC 09/07 Q1010 NOSIG RMK BLU
  • 020320Z 12008KT 9999 -RA NSC 09/07 Q1010 NOSIG RMK BLU
  • 020315Z 12007KT CAVOK 09/07 Q1010 TEMPO -RA RMK BLU
  • 020245Z 13005KT CAVOK 09/06 Q1010 TEMPO -RA RMK BLU
  • 020215Z 11004KT CAVOK 09/06 Q1010 TEMPO -RA RMK BLU

TAF TAF LHKE
Valide du 02 à 06h jusqu'au 02 à 15h UTC


020515Z 0206/0215 13006KT 6000 FEW012 BKN045 OVC070
TEMPO 0206/0210 3000 RA BR BKN008 BKN030 OVC060
BECMG 0210/0212 9999 SCT020 BKN030
TEMPO 0210/0215 8000 -RA BKN017 BKN033



MET'MAP, la Météo Aéronautique d'un coup d'oeil ! - Copyright ORBIFLY Décembre 2007 - Disclaimer

ORBIFLY MET'MAP TEAM :

Programmation & Développement : Alexandra Zaïnal
Sur une idée originale de : Baudouin d'Aumeries
Soutien technique & logistique : Manuel Goepfert
Assistance : Marc-Olivier Méhu




SOURCES & CREDITS :

   NOAA